sensor_id;sensor_type;location;lat;lon;timestamp;temperature;humidity
12752;DHT22;6440;44.616;2.032;2022-09-09T00:00:16;16.20;99.90
12752;DHT22;6440;44.616;2.032;2022-09-09T00:02:46;16.20;99.90
12752;DHT22;6440;44.616;2.032;2022-09-09T00:05:23;16.20;99.90
12752;DHT22;6440;44.616;2.032;2022-09-09T00:07:51;16.20;99.90
12752;DHT22;6440;44.616;2.032;2022-09-09T00:10:23;16.10;99.90
12752;DHT22;6440;44.616;2.032;2022-09-09T00:13:20;16.10;99.90
12752;DHT22;6440;44.616;2.032;2022-09-09T00:15:54;16.00;99.90
12752;DHT22;6440;44.616;2.032;2022-09-09T00:18:45;16.00;99.90
12752;DHT22;6440;44.616;2.032;2022-09-09T00:21:24;16.00;99.90
12752;DHT22;6440;44.616;2.032;2022-09-09T00:23:51;16.00;99.90
12752;DHT22;6440;44.616;2.032;2022-09-09T00:26:28;16.00;99.90
12752;DHT22;6440;44.616;2.032;2022-09-09T00:29:16;16.10;99.90
12752;DHT22;6440;44.616;2.032;2022-09-09T00:31:57;16.10;99.90
12752;DHT22;6440;44.616;2.032;2022-09-09T00:34:24;16.20;99.90
12752;DHT22;6440;44.616;2.032;2022-09-09T00:36:52;16.10;99.90
12752;DHT22;6440;44.616;2.032;2022-09-09T00:39:29;16.10;99.90
12752;DHT22;6440;44.616;2.032;2022-09-09T00:42:24;16.00;99.90
12752;DHT22;6440;44.616;2.032;2022-09-09T00:47:39;15.90;99.90
12752;DHT22;6440;44.616;2.032;2022-09-09T00:50:12;15.90;99.90
12752;DHT22;6440;44.616;2.032;2022-09-09T00:53:05;15.90;99.90
12752;DHT22;6440;44.616;2.032;2022-09-09T00:55:44;15.80;99.90
12752;DHT22;6440;44.616;2.032;2022-09-09T00:58:20;15.80;99.90
12752;DHT22;6440;44.616;2.032;2022-09-09T01:00:51;15.80;99.90
12752;DHT22;6440;44.616;2.032;2022-09-09T01:08:43;15.90;99.90
12752;DHT22;6440;44.616;2.032;2022-09-09T01:11:22;15.90;99.90
12752;DHT22;6440;44.616;2.032;2022-09-09T01:13:52;15.80;99.90
12752;DHT22;6440;44.616;2.032;2022-09-09T01:16:17;15.80;99.90
12752;DHT22;6440;44.616;2.032;2022-09-09T01:18:46;15.80;99.90
12752;DHT22;6440;44.616;2.032;2022-09-09T01:21:35;15.80;99.90
12752;DHT22;6440;44.616;2.032;2022-09-09T01:27:01;15.90;99.90
12752;DHT22;6440;44.616;2.032;2022-09-09T01:29:28;16.00;99.90
12752;DHT22;6440;44.616;2.032;2022-09-09T01:31:57;16.00;99.90
12752;DHT22;6440;44.616;2.032;2022-09-09T01:34:25;16.00;99.90
12752;DHT22;6440;44.616;2.032;2022-09-09T01:37:01;16.00;99.90
12752;DHT22;6440;44.616;2.032;2022-09-09T01:39:30;16.00;99.90
12752;DHT22;6440;44.616;2.032;2022-09-09T01:41:58;16.00;99.90
12752;DHT22;6440;44.616;2.032;2022-09-09T01:44:26;16.00;99.90
12752;DHT22;6440;44.616;2.032;2022-09-09T01:46:54;16.00;99.90
12752;DHT22;6440;44.616;2.032;2022-09-09T01:49:22;16.00;99.90
12752;DHT22;6440;44.616;2.032;2022-09-09T01:51:52;16.00;99.90
12752;DHT22;6440;44.616;2.032;2022-09-09T01:54:20;16.00;99.90
12752;DHT22;6440;44.616;2.032;2022-09-09T01:57:06;15.90;99.90
12752;DHT22;6440;44.616;2.032;2022-09-09T02:00:03;15.90;99.90
12752;DHT22;6440;44.616;2.032;2022-09-09T02:02:35;15.90;99.90
12752;DHT22;6440;44.616;2.032;2022-09-09T02:07:48;16.00;99.90
12752;DHT22;6440;44.616;2.032;2022-09-09T02:10:20;16.00;99.90
12752;DHT22;6440;44.616;2.032;2022-09-09T02:13:01;16.00;99.90
12752;DHT22;6440;44.616;2.032;2022-09-09T02:15:30;16.00;99.90
12752;DHT22;6440;44.616;2.032;2022-09-09T02:18:13;16.00;99.90
12752;DHT22;6440;44.616;2.032;2022-09-09T02:20:40;16.10;99.90
12752;DHT22;6440;44.616;2.032;2022-09-09T02:23:08;16.10;99.90
12752;DHT22;6440;44.616;2.032;2022-09-09T02:25:36;16.10;99.90
12752;DHT22;6440;44.616;2.032;2022-09-09T02:28:05;16.10;99.90
12752;DHT22;6440;44.616;2.032;2022-09-09T02:30:32;16.10;99.90
12752;DHT22;6440;44.616;2.032;2022-09-09T02:33:00;16.10;99.90
12752;DHT22;6440;44.616;2.032;2022-09-09T02:35:28;16.00;99.90
12752;DHT22;6440;44.616;2.032;2022-09-09T02:37:56;16.00;99.90
12752;DHT22;6440;44.616;2.032;2022-09-09T02:40:24;16.00;99.90
12752;DHT22;6440;44.616;2.032;2022-09-09T02:42:53;16.00;99.90
12752;DHT22;6440;44.616;2.032;2022-09-09T02:45:23;16.00;99.90
12752;DHT22;6440;44.616;2.032;2022-09-09T02:48:14;16.00;99.90
12752;DHT22;6440;44.616;2.032;2022-09-09T02:50:54;16.00;99.90
12752;DHT22;6440;44.616;2.032;2022-09-09T02:53:31;16.00;99.90
12752;DHT22;6440;44.616;2.032;2022-09-09T02:56:00;16.00;99.90
12752;DHT22;6440;44.616;2.032;2022-09-09T02:58:29;16.00;99.90
12752;DHT22;6440;44.616;2.032;2022-09-09T03:00:57;16.00;99.90
12752;DHT22;6440;44.616;2.032;2022-09-09T03:03:25;16.10;99.90
12752;DHT22;6440;44.616;2.032;2022-09-09T03:05:54;16.10;99.90
12752;DHT22;6440;44.616;2.032;2022-09-09T03:08:24;16.00;99.90
12752;DHT22;6440;44.616;2.032;2022-09-09T03:10:53;16.00;99.90
12752;DHT22;6440;44.616;2.032;2022-09-09T03:13:21;16.00;99.90
12752;DHT22;6440;44.616;2.032;2022-09-09T03:15:50;16.00;99.90
12752;DHT22;6440;44.616;2.032;2022-09-09T03:18:19;16.00;99.90
12752;DHT22;6440;44.616;2.032;2022-09-09T03:20:48;16.00;99.90
12752;DHT22;6440;44.616;2.032;2022-09-09T03:23:17;16.00;99.90
12752;DHT22;6440;44.616;2.032;2022-09-09T03:25:47;16.00;99.90
12752;DHT22;6440;44.616;2.032;2022-09-09T03:28:15;16.00;99.90
12752;DHT22;6440;44.616;2.032;2022-09-09T03:30:43;16.10;99.90
12752;DHT22;6440;44.616;2.032;2022-09-09T03:33:12;16.00;99.90
12752;DHT22;6440;44.616;2.032;2022-09-09T03:35:44;16.00;99.90
12752;DHT22;6440;44.616;2.032;2022-09-09T03:38:09;16.00;99.90
12752;DHT22;6440;44.616;2.032;2022-09-09T03:40:37;16.00;99.90
12752;DHT22;6440;44.616;2.032;2022-09-09T03:43:06;16.00;99.90
12752;DHT22;6440;44.616;2.032;2022-09-09T03:45:35;16.00;99.90
12752;DHT22;6440;44.616;2.032;2022-09-09T03:48:04;16.00;99.90
12752;DHT22;6440;44.616;2.032;2022-09-09T03:50:33;16.00;99.90
12752;DHT22;6440;44.616;2.032;2022-09-09T03:53:02;16.10;99.90
12752;DHT22;6440;44.616;2.032;2022-09-09T03:55:31;16.10;99.90
12752;DHT22;6440;44.616;2.032;2022-09-09T03:58:00;16.10;99.90
12752;DHT22;6440;44.616;2.032;2022-09-09T04:00:28;16.10;99.90
12752;DHT22;6440;44.616;2.032;2022-09-09T04:02:57;16.00;99.90
12752;DHT22;6440;44.616;2.032;2022-09-09T04:05:26;16.00;99.90
12752;DHT22;6440;44.616;2.032;2022-09-09T04:07:55;16.00;99.90
12752;DHT22;6440;44.616;2.032;2022-09-09T04:10:24;16.00;99.90
12752;DHT22;6440;44.616;2.032;2022-09-09T04:12:53;16.00;99.90
12752;DHT22;6440;44.616;2.032;2022-09-09T04:15:22;16.00;99.90
12752;DHT22;6440;44.616;2.032;2022-09-09T04:17:51;16.00;99.90
12752;DHT22;6440;44.616;2.032;2022-09-09T04:20:20;16.00;99.90
12752;DHT22;6440;44.616;2.032;2022-09-09T04:22:49;16.00;99.90
12752;DHT22;6440;44.616;2.032;2022-09-09T04:25:18;16.00;99.90
12752;DHT22;6440;44.616;2.032;2022-09-09T04:27:47;16.00;99.90
12752;DHT22;6440;44.616;2.032;2022-09-09T04:30:16;16.00;99.90
12752;DHT22;6440;44.616;2.032;2022-09-09T04:32:45;16.00;99.90
12752;DHT22;6440;44.616;2.032;2022-09-09T04:35:14;16.00;99.90
12752;DHT22;6440;44.616;2.032;2022-09-09T04:37:42;16.00;99.90
12752;DHT22;6440;44.616;2.032;2022-09-09T04:40:11;16.00;99.90
12752;DHT22;6440;44.616;2.032;2022-09-09T04:42:39;16.10;99.90
12752;DHT22;6440;44.616;2.032;2022-09-09T04:45:09;16.10;99.90
12752;DHT22;6440;44.616;2.032;2022-09-09T04:47:37;16.10;99.90
12752;DHT22;6440;44.616;2.032;2022-09-09T04:50:07;16.10;99.90
12752;DHT22;6440;44.616;2.032;2022-09-09T04:52:36;16.10;99.90
12752;DHT22;6440;44.616;2.032;2022-09-09T04:55:06;16.10;99.90
12752;DHT22;6440;44.616;2.032;2022-09-09T04:57:35;16.10;99.90
12752;DHT22;6440;44.616;2.032;2022-09-09T05:00:05;16.10;99.90
12752;DHT22;6440;44.616;2.032;2022-09-09T05:02:36;16.00;99.90
12752;DHT22;6440;44.616;2.032;2022-09-09T05:05:03;16.00;99.90
12752;DHT22;6440;44.616;2.032;2022-09-09T05:07:31;16.00;99.90
12752;DHT22;6440;44.616;2.032;2022-09-09T05:10:00;16.00;99.90
12752;DHT22;6440;44.616;2.032;2022-09-09T05:12:29;16.00;99.90
12752;DHT22;6440;44.616;2.032;2022-09-09T05:14:57;16.00;99.90
12752;DHT22;6440;44.616;2.032;2022-09-09T05:17:27;16.10;99.90
12752;DHT22;6440;44.616;2.032;2022-09-09T05:19:56;16.10;99.90
12752;DHT22;6440;44.616;2.032;2022-09-09T05:22:25;16.10;99.90
12752;DHT22;6440;44.616;2.032;2022-09-09T05:24:54;16.20;99.90
12752;DHT22;6440;44.616;2.032;2022-09-09T05:27:23;16.20;99.90
12752;DHT22;6440;44.616;2.032;2022-09-09T05:29:52;16.20;99.90
12752;DHT22;6440;44.616;2.032;2022-09-09T05:32:21;16.20;99.90
12752;DHT22;6440;44.616;2.032;2022-09-09T05:34:50;16.30;99.90
12752;DHT22;6440;44.616;2.032;2022-09-09T05:37:18;16.30;99.90
12752;DHT22;6440;44.616;2.032;2022-09-09T05:39:47;16.40;99.90
12752;DHT22;6440;44.616;2.032;2022-09-09T05:42:16;16.40;99.90
12752;DHT22;6440;44.616;2.032;2022-09-09T05:44:45;16.40;99.90
12752;DHT22;6440;44.616;2.032;2022-09-09T05:47:14;16.40;99.90
12752;DHT22;6440;44.616;2.032;2022-09-09T05:49:43;16.30;99.90
12752;DHT22;6440;44.616;2.032;2022-09-09T05:52:11;16.30;99.90
12752;DHT22;6440;44.616;2.032;2022-09-09T05:54:40;16.30;99.90
12752;DHT22;6440;44.616;2.032;2022-09-09T05:57:09;16.30;99.90
12752;DHT22;6440;44.616;2.032;2022-09-09T05:59:38;16.30;99.90
12752;DHT22;6440;44.616;2.032;2022-09-09T06:02:08;16.40;99.90
12752;DHT22;6440;44.616;2.032;2022-09-09T06:04:35;16.40;99.90
12752;DHT22;6440;44.616;2.032;2022-09-09T06:07:04;16.40;99.90
12752;DHT22;6440;44.616;2.032;2022-09-09T06:09:32;16.40;99.90
12752;DHT22;6440;44.616;2.032;2022-09-09T06:12:01;16.40;99.90
12752;DHT22;6440;44.616;2.032;2022-09-09T06:14:31;16.40;99.90
12752;DHT22;6440;44.616;2.032;2022-09-09T06:17:00;16.40;99.90
12752;DHT22;6440;44.616;2.032;2022-09-09T06:19:29;16.40;99.90
12752;DHT22;6440;44.616;2.032;2022-09-09T06:21:58;16.50;99.90
12752;DHT22;6440;44.616;2.032;2022-09-09T06:24:26;16.50;99.90
12752;DHT22;6440;44.616;2.032;2022-09-09T06:26:55;16.60;99.90
12752;DHT22;6440;44.616;2.032;2022-09-09T06:29:24;16.70;99.90
12752;DHT22;6440;44.616;2.032;2022-09-09T06:31:53;16.70;99.90
12752;DHT22;6440;44.616;2.032;2022-09-09T06:34:22;16.80;99.90
12752;DHT22;6440;44.616;2.032;2022-09-09T06:36:51;16.80;99.90
12752;DHT22;6440;44.616;2.032;2022-09-09T06:39:20;16.90;99.90
12752;DHT22;6440;44.616;2.032;2022-09-09T06:41:49;16.90;99.90
12752;DHT22;6440;44.616;2.032;2022-09-09T06:44:18;17.00;99.90
12752;DHT22;6440;44.616;2.032;2022-09-09T06:46:46;17.10;99.90
12752;DHT22;6440;44.616;2.032;2022-09-09T06:49:15;17.10;99.90
12752;DHT22;6440;44.616;2.032;2022-09-09T06:51:44;17.20;99.90
12752;DHT22;6440;44.616;2.032;2022-09-09T06:54:13;17.20;99.90
12752;DHT22;6440;44.616;2.032;2022-09-09T06:56:42;17.20;99.90
12752;DHT22;6440;44.616;2.032;2022-09-09T06:59:10;17.30;99.90
12752;DHT22;6440;44.616;2.032;2022-09-09T07:01:39;17.40;99.90
12752;DHT22;6440;44.616;2.032;2022-09-09T07:04:09;17.60;99.90
12752;DHT22;6440;44.616;2.032;2022-09-09T07:06:37;17.70;99.90
12752;DHT22;6440;44.616;2.032;2022-09-09T07:09:06;18.00;99.90
12752;DHT22;6440;44.616;2.032;2022-09-09T07:11:41;18.30;99.90
12752;DHT22;6440;44.616;2.032;2022-09-09T07:14:11;18.60;99.90
12752;DHT22;6440;44.616;2.032;2022-09-09T07:16:40;19.00;99.90
12752;DHT22;6440;44.616;2.032;2022-09-09T07:19:08;19.10;99.90
12752;DHT22;6440;44.616;2.032;2022-09-09T07:21:36;19.20;99.90
12752;DHT22;6440;44.616;2.032;2022-09-09T07:24:05;19.20;99.90
12752;DHT22;6440;44.616;2.032;2022-09-09T07:26:34;19.10;99.90
12752;DHT22;6440;44.616;2.032;2022-09-09T07:29:02;19.00;99.90
12752;DHT22;6440;44.616;2.032;2022-09-09T07:31:31;19.00;99.90
12752;DHT22;6440;44.616;2.032;2022-09-09T07:33:58;19.00;99.90
12752;DHT22;6440;44.616;2.032;2022-09-09T07:36:27;19.00;99.90
12752;DHT22;6440;44.616;2.032;2022-09-09T07:38:55;18.90;99.90
12752;DHT22;6440;44.616;2.032;2022-09-09T07:41:23;19.00;99.90
12752;DHT22;6440;44.616;2.032;2022-09-09T07:43:50;19.00;99.90
12752;DHT22;6440;44.616;2.032;2022-09-09T07:46:18;19.00;99.90
12752;DHT22;6440;44.616;2.032;2022-09-09T07:48:48;19.00;99.90
12752;DHT22;6440;44.616;2.032;2022-09-09T07:51:16;19.00;99.90
12752;DHT22;6440;44.616;2.032;2022-09-09T07:53:44;19.00;99.90
12752;DHT22;6440;44.616;2.032;2022-09-09T07:56:14;19.00;99.90
12752;DHT22;6440;44.616;2.032;2022-09-09T07:58:41;19.00;99.90
12752;DHT22;6440;44.616;2.032;2022-09-09T08:01:12;19.00;99.90
12752;DHT22;6440;44.616;2.032;2022-09-09T08:03:39;18.90;99.90
12752;DHT22;6440;44.616;2.032;2022-09-09T08:06:08;18.80;99.90
12752;DHT22;6440;44.616;2.032;2022-09-09T08:08:36;18.80;99.90
12752;DHT22;6440;44.616;2.032;2022-09-09T08:11:07;18.70;99.90
12752;DHT22;6440;44.616;2.032;2022-09-09T08:13:34;18.70;99.90
12752;DHT22;6440;44.616;2.032;2022-09-09T08:16:14;18.70;99.90
12752;DHT22;6440;44.616;2.032;2022-09-09T08:18:40;18.70;99.90
12752;DHT22;6440;44.616;2.032;2022-09-09T08:21:10;18.80;99.90
12752;DHT22;6440;44.616;2.032;2022-09-09T08:23:38;18.80;99.90
12752;DHT22;6440;44.616;2.032;2022-09-09T08:26:17;18.80;99.90
12752;DHT22;6440;44.616;2.032;2022-09-09T08:28:44;18.80;99.90
12752;DHT22;6440;44.616;2.032;2022-09-09T08:31:14;18.80;99.90
12752;DHT22;6440;44.616;2.032;2022-09-09T08:33:42;18.80;99.90
12752;DHT22;6440;44.616;2.032;2022-09-09T08:36:10;18.90;99.90
12752;DHT22;6440;44.616;2.032;2022-09-09T08:38:38;19.10;99.90
12752;DHT22;6440;44.616;2.032;2022-09-09T08:41:27;19.40;99.90
12752;DHT22;6440;44.616;2.032;2022-09-09T08:44:07;19.60;99.90
12752;DHT22;6440;44.616;2.032;2022-09-09T08:46:46;19.90;99.90
12752;DHT22;6440;44.616;2.032;2022-09-09T08:49:22;20.00;99.90
12752;DHT22;6440;44.616;2.032;2022-09-09T08:51:50;20.10;99.90
12752;DHT22;6440;44.616;2.032;2022-09-09T08:54:18;20.20;99.90
12752;DHT22;6440;44.616;2.032;2022-09-09T08:56:46;20.30;99.90
12752;DHT22;6440;44.616;2.032;2022-09-09T08:59:14;20.30;99.90
12752;DHT22;6440;44.616;2.032;2022-09-09T09:01:51;20.30;99.90
12752;DHT22;6440;44.616;2.032;2022-09-09T09:04:29;20.30;99.90
12752;DHT22;6440;44.616;2.032;2022-09-09T09:07:14;20.20;99.90
12752;DHT22;6440;44.616;2.032;2022-09-09T09:09:55;20.10;99.90
12752;DHT22;6440;44.616;2.032;2022-09-09T09:12:22;19.90;99.90
12752;DHT22;6440;44.616;2.032;2022-09-09T09:14:50;19.90;99.90
12752;DHT22;6440;44.616;2.032;2022-09-09T09:17:19;19.90;99.90
12752;DHT22;6440;44.616;2.032;2022-09-09T09:19:47;19.90;99.90
12752;DHT22;6440;44.616;2.032;2022-09-09T09:22:19;20.00;99.90
12752;DHT22;6440;44.616;2.032;2022-09-09T09:24:52;20.10;99.90
12752;DHT22;6440;44.616;2.032;2022-09-09T09:27:40;20.60;99.90
12752;DHT22;6440;44.616;2.032;2022-09-09T09:30:17;20.90;99.90
12752;DHT22;6440;44.616;2.032;2022-09-09T09:32:53;21.30;99.90
12752;DHT22;6440;44.616;2.032;2022-09-09T09:35:11;21.60;99.90
12752;DHT22;6440;44.616;2.032;2022-09-09T09:37:40;22.20;99.90
12752;DHT22;6440;44.616;2.032;2022-09-09T09:40:10;22.70;99.90
12752;DHT22;6440;44.616;2.032;2022-09-09T09:42:37;22.90;99.60
12752;DHT22;6440;44.616;2.032;2022-09-09T09:45:14;22.90;99.90
12752;DHT22;6440;44.616;2.032;2022-09-09T09:47:43;22.60;99.00
12752;DHT22;6440;44.616;2.032;2022-09-09T09:50:17;22.40;99.00
12752;DHT22;6440;44.616;2.032;2022-09-09T09:52:51;22.40;99.90
12752;DHT22;6440;44.616;2.032;2022-09-09T09:55:12;22.40;99.90
12752;DHT22;6440;44.616;2.032;2022-09-09T09:57:40;22.50;99.90
12752;DHT22;6440;44.616;2.032;2022-09-09T10:00:16;22.50;99.20
12752;DHT22;6440;44.616;2.032;2022-09-09T10:02:43;22.50;99.90
12752;DHT22;6440;44.616;2.032;2022-09-09T10:05:17;22.50;99.50
12752;DHT22;6440;44.616;2.032;2022-09-09T10:07:44;22.80;99.70
12752;DHT22;6440;44.616;2.032;2022-09-09T10:10:20;22.90;97.90
12752;DHT22;6440;44.616;2.032;2022-09-09T10:12:54;22.80;99.10
12752;DHT22;6440;44.616;2.032;2022-09-09T10:15:30;22.60;99.20
12752;DHT22;6440;44.616;2.032;2022-09-09T10:20:54;22.40;99.90
12752;DHT22;6440;44.616;2.032;2022-09-09T10:23:52;22.40;99.90
12752;DHT22;6440;44.616;2.032;2022-09-09T10:26:34;22.70;99.70
12752;DHT22;6440;44.616;2.032;2022-09-09T10:29:26;23.00;98.50
12752;DHT22;6440;44.616;2.032;2022-09-09T10:32:30;23.10;96.80
12752;DHT22;6440;44.616;2.032;2022-09-09T10:35:11;23.20;97.40
12752;DHT22;6440;44.616;2.032;2022-09-09T10:39:14;23.20;95.40
12752;DHT22;6440;44.616;2.032;2022-09-09T10:41:09;23.20;95.50
12752;DHT22;6440;44.616;2.032;2022-09-09T10:52:37;25.20;90.00
12752;DHT22;6440;44.616;2.032;2022-09-09T10:55:18;25.70;89.00
12752;DHT22;6440;44.616;2.032;2022-09-09T10:57:48;26.30;88.10
12752;DHT22;6440;44.616;2.032;2022-09-09T11:00:18;26.20;84.20
12752;DHT22;6440;44.616;2.032;2022-09-09T11:02:49;26.30;87.90
12752;DHT22;6440;44.616;2.032;2022-09-09T11:05:26;26.30;85.90
12752;DHT22;6440;44.616;2.032;2022-09-09T11:07:56;26.20;82.50
12752;DHT22;6440;44.616;2.032;2022-09-09T11:10:30;26.20;83.90
12752;DHT22;6440;44.616;2.032;2022-09-09T11:12:58;26.20;83.20
12752;DHT22;6440;44.616;2.032;2022-09-09T11:15:28;26.40;83.80
12752;DHT22;6440;44.616;2.032;2022-09-09T11:17:53;26.60;82.10
12752;DHT22;6440;44.616;2.032;2022-09-09T11:20:21;26.60;81.40
12752;DHT22;6440;44.616;2.032;2022-09-09T11:22:52;26.30;82.90
12752;DHT22;6440;44.616;2.032;2022-09-09T11:25:23;26.30;84.70
12752;DHT22;6440;44.616;2.032;2022-09-09T11:28:19;26.20;86.90
12752;DHT22;6440;44.616;2.032;2022-09-09T11:31:17;26.10;86.90
12752;DHT22;6440;44.616;2.032;2022-09-09T11:33:54;26.10;88.10
12752;DHT22;6440;44.616;2.032;2022-09-09T11:36:46;26.30;87.90
12752;DHT22;6440;44.616;2.032;2022-09-09T11:39:32;26.50;87.00
12752;DHT22;6440;44.616;2.032;2022-09-09T11:41:52;25.90;87.80
12752;DHT22;6440;44.616;2.032;2022-09-09T11:44:24;25.60;87.40
12752;DHT22;6440;44.616;2.032;2022-09-09T11:46:50;25.40;88.30
12752;DHT22;6440;44.616;2.032;2022-09-09T11:49:28;25.30;88.30
12752;DHT22;6440;44.616;2.032;2022-09-09T11:51:54;25.20;89.80
12752;DHT22;6440;44.616;2.032;2022-09-09T11:54:29;25.30;88.60
12752;DHT22;6440;44.616;2.032;2022-09-09T11:56:56;25.50;87.30
12752;DHT22;6440;44.616;2.032;2022-09-09T11:59:31;25.70;88.20
12752;DHT22;6440;44.616;2.032;2022-09-09T12:02:01;25.70;87.30
12752;DHT22;6440;44.616;2.032;2022-09-09T12:04:37;25.60;86.80
12752;DHT22;6440;44.616;2.032;2022-09-09T12:09:51;25.20;88.50
12752;DHT22;6440;44.616;2.032;2022-09-09T12:12:21;25.10;88.70
12752;DHT22;6440;44.616;2.032;2022-09-09T12:14:57;25.00;87.80
12752;DHT22;6440;44.616;2.032;2022-09-09T12:17:24;25.00;87.50
12752;DHT22;6440;44.616;2.032;2022-09-09T12:20:00;25.00;87.60
12752;DHT22;6440;44.616;2.032;2022-09-09T12:22:51;25.00;87.30
12752;DHT22;6440;44.616;2.032;2022-09-09T12:26:47;25.30;85.80
12752;DHT22;6440;44.616;2.032;2022-09-09T12:31:33;25.60;83.60
12752;DHT22;6440;44.616;2.032;2022-09-09T12:34:04;25.90;84.20
12752;DHT22;6440;44.616;2.032;2022-09-09T12:36:30;26.10;83.00
12752;DHT22;6440;44.616;2.032;2022-09-09T12:38:59;25.90;82.80
12752;DHT22;6440;44.616;2.032;2022-09-09T12:41:26;25.70;83.20
12752;DHT22;6440;44.616;2.032;2022-09-09T12:44:04;25.60;84.40
12752;DHT22;6440;44.616;2.032;2022-09-09T12:46:36;25.80;85.10
12752;DHT22;6440;44.616;2.032;2022-09-09T12:49:50;26.10;85.70
12752;DHT22;6440;44.616;2.032;2022-09-09T12:52:03;26.20;86.70
12752;DHT22;6440;44.616;2.032;2022-09-09T12:54:30;26.30;83.50
12752;DHT22;6440;44.616;2.032;2022-09-09T12:56:58;26.30;83.40
12752;DHT22;6440;44.616;2.032;2022-09-09T12:59:27;25.90;84.80
12752;DHT22;6440;44.616;2.032;2022-09-09T13:01:55;25.70;84.70
12752;DHT22;6440;44.616;2.032;2022-09-09T13:04:23;25.70;83.10
12752;DHT22;6440;44.616;2.032;2022-09-09T13:06:51;25.70;84.20
12752;DHT22;6440;44.616;2.032;2022-09-09T13:09:19;25.60;83.20
12752;DHT22;6440;44.616;2.032;2022-09-09T13:11:49;25.40;84.20
12752;DHT22;6440;44.616;2.032;2022-09-09T13:14:19;25.20;84.40
12752;DHT22;6440;44.616;2.032;2022-09-09T13:16:58;25.00;84.60
12752;DHT22;6440;44.616;2.032;2022-09-09T13:19:25;24.70;84.90
12752;DHT22;6440;44.616;2.032;2022-09-09T13:21:53;24.40;86.00
12752;DHT22;6440;44.616;2.032;2022-09-09T13:24:31;24.40;86.50
12752;DHT22;6440;44.616;2.032;2022-09-09T13:26:59;24.30;86.40
12752;DHT22;6440;44.616;2.032;2022-09-09T13:29:26;24.30;87.10
12752;DHT22;6440;44.616;2.032;2022-09-09T13:32:03;24.30;86.90
12752;DHT22;6440;44.616;2.032;2022-09-09T13:34:30;24.30;87.60
12752;DHT22;6440;44.616;2.032;2022-09-09T13:37:00;24.50;86.70
12752;DHT22;6440;44.616;2.032;2022-09-09T13:39:27;24.70;86.60
12752;DHT22;6440;44.616;2.032;2022-09-09T13:41:55;25.00;84.50
12752;DHT22;6440;44.616;2.032;2022-09-09T13:44:24;25.10;84.30
12752;DHT22;6440;44.616;2.032;2022-09-09T13:47:15;25.20;83.70
12752;DHT22;6440;44.616;2.032;2022-09-09T13:49:34;25.20;83.90
12752;DHT22;6440;44.616;2.032;2022-09-09T13:52:04;25.10;84.30
12752;DHT22;6440;44.616;2.032;2022-09-09T13:54:32;25.20;84.00
12752;DHT22;6440;44.616;2.032;2022-09-09T13:57:01;25.20;83.70
12752;DHT22;6440;44.616;2.032;2022-09-09T13:59:29;25.20;84.20
12752;DHT22;6440;44.616;2.032;2022-09-09T14:01:57;25.30;84.30
12752;DHT22;6440;44.616;2.032;2022-09-09T14:04:25;25.40;84.30
12752;DHT22;6440;44.616;2.032;2022-09-09T14:06:54;25.40;83.50
12752;DHT22;6440;44.616;2.032;2022-09-09T14:09:22;25.30;84.40
12752;DHT22;6440;44.616;2.032;2022-09-09T14:11:50;25.40;85.10
12752;DHT22;6440;44.616;2.032;2022-09-09T14:14:19;25.50;84.60
12752;DHT22;6440;44.616;2.032;2022-09-09T14:16:48;25.40;84.00
12752;DHT22;6440;44.616;2.032;2022-09-09T14:19:16;25.20;84.30
12752;DHT22;6440;44.616;2.032;2022-09-09T14:21:45;24.90;84.30
12752;DHT22;6440;44.616;2.032;2022-09-09T14:24:14;24.70;85.30
12752;DHT22;6440;44.616;2.032;2022-09-09T14:26:42;24.60;86.30
12752;DHT22;6440;44.616;2.032;2022-09-09T14:29:11;24.70;86.50
12752;DHT22;6440;44.616;2.032;2022-09-09T14:31:39;24.80;85.30
12752;DHT22;6440;44.616;2.032;2022-09-09T14:34:08;24.90;85.50
12752;DHT22;6440;44.616;2.032;2022-09-09T14:36:36;24.90;85.20
12752;DHT22;6440;44.616;2.032;2022-09-09T14:39:04;24.90;86.10
12752;DHT22;6440;44.616;2.032;2022-09-09T14:41:33;25.00;84.70
12752;DHT22;6440;44.616;2.032;2022-09-09T14:44:02;25.00;84.90
12752;DHT22;6440;44.616;2.032;2022-09-09T14:46:31;25.00;84.00
12752;DHT22;6440;44.616;2.032;2022-09-09T14:48:59;24.90;84.80
12752;DHT22;6440;44.616;2.032;2022-09-09T14:51:28;24.90;85.00
12752;DHT22;6440;44.616;2.032;2022-09-09T14:53:58;24.90;84.50
12752;DHT22;6440;44.616;2.032;2022-09-09T14:56:25;24.80;84.70
12752;DHT22;6440;44.616;2.032;2022-09-09T14:58:53;24.70;84.50
12752;DHT22;6440;44.616;2.032;2022-09-09T15:01:21;24.60;84.80
12752;DHT22;6440;44.616;2.032;2022-09-09T15:03:50;24.70;84.40
12752;DHT22;6440;44.616;2.032;2022-09-09T15:06:17;24.90;83.70
12752;DHT22;6440;44.616;2.032;2022-09-09T15:08:44;25.00;81.00
12752;DHT22;6440;44.616;2.032;2022-09-09T15:11:12;25.00;79.40
12752;DHT22;6440;44.616;2.032;2022-09-09T15:13:40;25.00;79.40
12752;DHT22;6440;44.616;2.032;2022-09-09T15:16:11;24.90;79.70
12752;DHT22;6440;44.616;2.032;2022-09-09T15:18:38;24.70;80.40
12752;DHT22;6440;44.616;2.032;2022-09-09T15:21:08;24.60;80.60
12752;DHT22;6440;44.616;2.032;2022-09-09T15:23:37;24.40;84.90
12752;DHT22;6440;44.616;2.032;2022-09-09T15:26:05;24.30;86.40
12752;DHT22;6440;44.616;2.032;2022-09-09T15:28:33;24.10;87.30
12752;DHT22;6440;44.616;2.032;2022-09-09T15:31:01;24.00;87.80
12752;DHT22;6440;44.616;2.032;2022-09-09T15:33:29;23.90;88.50
12752;DHT22;6440;44.616;2.032;2022-09-09T15:35:57;23.80;88.60
12752;DHT22;6440;44.616;2.032;2022-09-09T15:38:26;23.80;88.90
12752;DHT22;6440;44.616;2.032;2022-09-09T15:40:55;23.90;88.30
12752;DHT22;6440;44.616;2.032;2022-09-09T15:43:23;24.00;86.00
12752;DHT22;6440;44.616;2.032;2022-09-09T15:45:54;24.10;84.40
12752;DHT22;6440;44.616;2.032;2022-09-09T15:48:21;24.20;84.20
12752;DHT22;6440;44.616;2.032;2022-09-09T15:50:50;24.40;84.10
12752;DHT22;6440;44.616;2.032;2022-09-09T15:53:19;24.50;84.20
12752;DHT22;6440;44.616;2.032;2022-09-09T15:55:48;24.50;84.10
12752;DHT22;6440;44.616;2.032;2022-09-09T15:58:19;24.50;84.20
12752;DHT22;6440;44.616;2.032;2022-09-09T16:00:51;24.60;84.10
12752;DHT22;6440;44.616;2.032;2022-09-09T16:03:22;24.60;81.30
12752;DHT22;6440;44.616;2.032;2022-09-09T16:05:52;24.70;79.60
12752;DHT22;6440;44.616;2.032;2022-09-09T16:08:23;24.80;78.70
12752;DHT22;6440;44.616;2.032;2022-09-09T16:10:53;24.80;78.70
12752;DHT22;6440;44.616;2.032;2022-09-09T16:13:23;24.80;77.90
12752;DHT22;6440;44.616;2.032;2022-09-09T16:15:54;24.80;79.00
12752;DHT22;6440;44.616;2.032;2022-09-09T16:18:22;24.70;77.40
12752;DHT22;6440;44.616;2.032;2022-09-09T16:20:54;24.60;77.50
12752;DHT22;6440;44.616;2.032;2022-09-09T16:23:23;24.50;77.30
12752;DHT22;6440;44.616;2.032;2022-09-09T16:25:53;24.50;77.50
12752;DHT22;6440;44.616;2.032;2022-09-09T16:28:20;24.50;77.20
12752;DHT22;6440;44.616;2.032;2022-09-09T16:30:49;24.40;77.60
12752;DHT22;6440;44.616;2.032;2022-09-09T16:33:16;24.30;78.10
12752;DHT22;6440;44.616;2.032;2022-09-09T16:35:45;24.20;78.50
12752;DHT22;6440;44.616;2.032;2022-09-09T16:38:13;24.10;79.40
12752;DHT22;6440;44.616;2.032;2022-09-09T16:40:41;24.00;79.40